sensor_id;sensor_type;location;lat;lon;timestamp;temperature;humidity
43530;DHT22;55654;50.966;6.878;2023-07-09T00:00:17;24.50;99.90
43530;DHT22;55654;50.966;6.878;2023-07-09T00:02:44;24.50;99.90
43530;DHT22;55654;50.966;6.878;2023-07-09T00:05:16;24.50;99.90
43530;DHT22;55654;50.966;6.878;2023-07-09T00:07:43;24.50;99.90
43530;DHT22;55654;50.966;6.878;2023-07-09T00:10:15;24.40;99.90
43530;DHT22;55654;50.966;6.878;2023-07-09T00:12:41;24.30;99.90
43530;DHT22;55654;50.966;6.878;2023-07-09T00:15:07;24.30;99.90
43530;DHT22;55654;50.966;6.878;2023-07-09T00:17:35;24.30;99.90
43530;DHT22;55654;50.966;6.878;2023-07-09T00:20:03;24.20;99.90
43530;DHT22;55654;50.966;6.878;2023-07-09T00:22:36;24.20;99.90
43530;DHT22;55654;50.966;6.878;2023-07-09T00:25:04;24.20;99.90
43530;DHT22;55654;50.966;6.878;2023-07-09T00:27:30;24.20;99.90
43530;DHT22;55654;50.966;6.878;2023-07-09T00:29:56;24.10;99.90
43530;DHT22;55654;50.966;6.878;2023-07-09T00:32:21;24.10;99.90
43530;DHT22;55654;50.966;6.878;2023-07-09T00:34:47;24.00;99.90
43530;DHT22;55654;50.966;6.878;2023-07-09T00:37:21;23.90;99.90
43530;DHT22;55654;50.966;6.878;2023-07-09T00:39:49;23.90;99.90
43530;DHT22;55654;50.966;6.878;2023-07-09T00:42:17;23.90;99.90
43530;DHT22;55654;50.966;6.878;2023-07-09T00:44:50;23.90;99.90
43530;DHT22;55654;50.966;6.878;2023-07-09T00:52:52;23.70;99.90
43530;DHT22;55654;50.966;6.878;2023-07-09T00:55:24;23.70;99.90
43530;DHT22;55654;50.966;6.878;2023-07-09T00:57:54;23.60;99.90
43530;DHT22;55654;50.966;6.878;2023-07-09T01:00:25;23.60;99.90
43530;DHT22;55654;50.966;6.878;2023-07-09T01:02:53;23.50;99.90
43530;DHT22;55654;50.966;6.878;2023-07-09T01:05:19;23.50;99.90
43530;DHT22;55654;50.966;6.878;2023-07-09T01:07:46;23.40;99.90
43530;DHT22;55654;50.966;6.878;2023-07-09T01:10:16;23.40;99.90
43530;DHT22;55654;50.966;6.878;2023-07-09T01:12:44;23.40;99.90
43530;DHT22;55654;50.966;6.878;2023-07-09T01:15:10;23.30;99.90
43530;DHT22;55654;50.966;6.878;2023-07-09T01:17:39;23.30;99.90
43530;DHT22;55654;50.966;6.878;2023-07-09T01:20:07;23.20;99.90
43530;DHT22;55654;50.966;6.878;2023-07-09T01:22:34;23.10;99.90
43530;DHT22;55654;50.966;6.878;2023-07-09T01:25:06;23.10;99.90
43530;DHT22;55654;50.966;6.878;2023-07-09T01:27:34;23.10;99.90
43530;DHT22;55654;50.966;6.878;2023-07-09T01:30:03;23.00;99.90
43530;DHT22;55654;50.966;6.878;2023-07-09T01:32:29;23.00;99.90
43530;DHT22;55654;50.966;6.878;2023-07-09T01:34:58;23.00;99.90
43530;DHT22;55654;50.966;6.878;2023-07-09T01:37:30;23.00;99.90
43530;DHT22;55654;50.966;6.878;2023-07-09T01:39:56;23.00;99.90
43530;DHT22;55654;50.966;6.878;2023-07-09T01:42:24;22.90;99.90
43530;DHT22;55654;50.966;6.878;2023-07-09T01:44:51;22.90;99.90
43530;DHT22;55654;50.966;6.878;2023-07-09T01:47:19;22.90;99.90
43530;DHT22;55654;50.966;6.878;2023-07-09T01:49:49;22.90;99.90
43530;DHT22;55654;50.966;6.878;2023-07-09T01:52:18;22.80;99.90
43530;DHT22;55654;50.966;6.878;2023-07-09T01:54:45;22.80;99.90
43530;DHT22;55654;50.966;6.878;2023-07-09T01:59:40;22.70;99.90
43530;DHT22;55654;50.966;6.878;2023-07-09T02:02:07;22.70;99.90
43530;DHT22;55654;50.966;6.878;2023-07-09T02:04:41;22.70;99.90
43530;DHT22;55654;50.966;6.878;2023-07-09T02:07:08;22.70;99.90
43530;DHT22;55654;50.966;6.878;2023-07-09T02:09:36;22.70;99.90
43530;DHT22;55654;50.966;6.878;2023-07-09T02:12:02;22.70;99.90
43530;DHT22;55654;50.966;6.878;2023-07-09T02:14:30;22.70;99.90
43530;DHT22;55654;50.966;6.878;2023-07-09T02:16:55;22.70;99.90
43530;DHT22;55654;50.966;6.878;2023-07-09T02:19:21;22.60;99.90
43530;DHT22;55654;50.966;6.878;2023-07-09T02:21:46;22.60;99.90
43530;DHT22;55654;50.966;6.878;2023-07-09T02:24:15;22.60;99.90
43530;DHT22;55654;50.966;6.878;2023-07-09T02:26:40;22.50;99.90
43530;DHT22;55654;50.966;6.878;2023-07-09T02:29:08;22.50;99.90
43530;DHT22;55654;50.966;6.878;2023-07-09T02:31:34;22.40;99.90
43530;DHT22;55654;50.966;6.878;2023-07-09T02:34:00;22.40;99.90
43530;DHT22;55654;50.966;6.878;2023-07-09T02:36:25;22.40;99.90
43530;DHT22;55654;50.966;6.878;2023-07-09T02:38:51;22.30;99.90
43530;DHT22;55654;50.966;6.878;2023-07-09T02:41:17;22.30;99.90
43530;DHT22;55654;50.966;6.878;2023-07-09T02:43:42;22.30;99.90
43530;DHT22;55654;50.966;6.878;2023-07-09T02:46:10;22.30;99.90
43530;DHT22;55654;50.966;6.878;2023-07-09T02:48:38;22.20;99.90
43530;DHT22;55654;50.966;6.878;2023-07-09T02:51:03;22.20;99.90
43530;DHT22;55654;50.966;6.878;2023-07-09T02:53:29;22.10;99.90
43530;DHT22;55654;50.966;6.878;2023-07-09T02:55:56;22.10;99.90
43530;DHT22;55654;50.966;6.878;2023-07-09T02:58:24;22.10;99.90
43530;DHT22;55654;50.966;6.878;2023-07-09T03:00:50;22.10;99.90
43530;DHT22;55654;50.966;6.878;2023-07-09T03:03:22;22.10;99.90
43530;DHT22;55654;50.966;6.878;2023-07-09T03:05:47;22.10;99.90
43530;DHT22;55654;50.966;6.878;2023-07-09T03:08:13;22.00;99.90
43530;DHT22;55654;50.966;6.878;2023-07-09T03:10:40;22.00;99.90
43530;DHT22;55654;50.966;6.878;2023-07-09T03:13:06;22.00;99.90
43530;DHT22;55654;50.966;6.878;2023-07-09T03:15:33;22.00;99.90
43530;DHT22;55654;50.966;6.878;2023-07-09T03:18:01;21.90;99.90
43530;DHT22;55654;50.966;6.878;2023-07-09T03:20:27;21.90;99.90
43530;DHT22;55654;50.966;6.878;2023-07-09T03:22:52;21.90;99.90
43530;DHT22;55654;50.966;6.878;2023-07-09T03:25:20;21.90;99.90
43530;DHT22;55654;50.966;6.878;2023-07-09T03:27:49;21.90;99.90
43530;DHT22;55654;50.966;6.878;2023-07-09T03:30:15;21.90;99.90
43530;DHT22;55654;50.966;6.878;2023-07-09T03:32:41;21.90;99.90
43530;DHT22;55654;50.966;6.878;2023-07-09T03:35:07;21.90;99.90
43530;DHT22;55654;50.966;6.878;2023-07-09T03:37:33;21.80;99.90
43530;DHT22;55654;50.966;6.878;2023-07-09T03:40:00;21.90;99.90
43530;DHT22;55654;50.966;6.878;2023-07-09T03:42:25;21.80;99.90
43530;DHT22;55654;50.966;6.878;2023-07-09T03:44:51;21.80;99.90
43530;DHT22;55654;50.966;6.878;2023-07-09T03:47:16;21.80;99.90
43530;DHT22;55654;50.966;6.878;2023-07-09T03:49:43;21.80;99.90
43530;DHT22;55654;50.966;6.878;2023-07-09T03:52:09;21.80;99.90
43530;DHT22;55654;50.966;6.878;2023-07-09T03:54:35;21.80;99.90
43530;DHT22;55654;50.966;6.878;2023-07-09T03:57:00;21.70;99.90
43530;DHT22;55654;50.966;6.878;2023-07-09T03:59:28;21.70;99.90
43530;DHT22;55654;50.966;6.878;2023-07-09T04:01:54;21.70;99.90
43530;DHT22;55654;50.966;6.878;2023-07-09T04:04:19;21.70;99.90
43530;DHT22;55654;50.966;6.878;2023-07-09T04:06:46;21.70;99.90
43530;DHT22;55654;50.966;6.878;2023-07-09T04:09:12;21.80;99.90
43530;DHT22;55654;50.966;6.878;2023-07-09T04:11:37;21.70;99.90
43530;DHT22;55654;50.966;6.878;2023-07-09T04:14:03;21.70;99.90
43530;DHT22;55654;50.966;6.878;2023-07-09T04:16:29;21.70;99.90
43530;DHT22;55654;50.966;6.878;2023-07-09T04:18:56;21.70;99.90
43530;DHT22;55654;50.966;6.878;2023-07-09T04:21:24;21.80;99.90
43530;DHT22;55654;50.966;6.878;2023-07-09T04:23:50;21.80;99.90
43530;DHT22;55654;50.966;6.878;2023-07-09T04:26:18;21.70;99.90
43530;DHT22;55654;50.966;6.878;2023-07-09T04:28:43;21.80;99.90
43530;DHT22;55654;50.966;6.878;2023-07-09T04:31:09;21.80;99.90
43530;DHT22;55654;50.966;6.878;2023-07-09T04:33:35;21.80;99.90
43530;DHT22;55654;50.966;6.878;2023-07-09T04:36:03;21.80;99.90
43530;DHT22;55654;50.966;6.878;2023-07-09T04:38:31;21.80;99.90
43530;DHT22;55654;50.966;6.878;2023-07-09T04:40:57;21.90;99.90
43530;DHT22;55654;50.966;6.878;2023-07-09T04:43:23;21.90;99.90
43530;DHT22;55654;50.966;6.878;2023-07-09T04:45:50;21.90;99.90
43530;DHT22;55654;50.966;6.878;2023-07-09T04:48:16;21.90;99.90
43530;DHT22;55654;50.966;6.878;2023-07-09T04:50:41;21.90;99.90
43530;DHT22;55654;50.966;6.878;2023-07-09T04:53:07;21.90;99.90
43530;DHT22;55654;50.966;6.878;2023-07-09T04:55:33;21.90;99.90
43530;DHT22;55654;50.966;6.878;2023-07-09T04:57:58;22.00;99.90
43530;DHT22;55654;50.966;6.878;2023-07-09T05:00:24;22.00;99.90
43530;DHT22;55654;50.966;6.878;2023-07-09T05:02:51;22.00;99.90
43530;DHT22;55654;50.966;6.878;2023-07-09T05:05:17;22.00;99.90
43530;DHT22;55654;50.966;6.878;2023-07-09T05:07:43;22.10;99.90
43530;DHT22;55654;50.966;6.878;2023-07-09T05:10:09;22.10;99.90
43530;DHT22;55654;50.966;6.878;2023-07-09T05:12:34;22.20;99.90
43530;DHT22;55654;50.966;6.878;2023-07-09T05:15:00;22.20;99.90
43530;DHT22;55654;50.966;6.878;2023-07-09T05:17:26;22.30;99.90
43530;DHT22;55654;50.966;6.878;2023-07-09T05:19:51;22.30;99.90
43530;DHT22;55654;50.966;6.878;2023-07-09T05:22:17;22.40;99.90
43530;DHT22;55654;50.966;6.878;2023-07-09T05:24:45;22.40;99.90
43530;DHT22;55654;50.966;6.878;2023-07-09T05:27:11;22.50;99.90
43530;DHT22;55654;50.966;6.878;2023-07-09T05:29:36;22.50;99.90
43530;DHT22;55654;50.966;6.878;2023-07-09T05:32:02;22.60;99.90
43530;DHT22;55654;50.966;6.878;2023-07-09T05:34:27;22.60;99.90
43530;DHT22;55654;50.966;6.878;2023-07-09T05:36:53;22.70;99.90
43530;DHT22;55654;50.966;6.878;2023-07-09T05:39:21;22.70;99.90
43530;DHT22;55654;50.966;6.878;2023-07-09T05:41:47;22.70;99.90
43530;DHT22;55654;50.966;6.878;2023-07-09T05:44:12;22.80;99.90
43530;DHT22;55654;50.966;6.878;2023-07-09T05:46:38;22.80;99.90
43530;DHT22;55654;50.966;6.878;2023-07-09T05:49:04;22.80;99.90
43530;DHT22;55654;50.966;6.878;2023-07-09T05:51:33;22.90;99.90
43530;DHT22;55654;50.966;6.878;2023-07-09T05:53:58;23.00;99.90
43530;DHT22;55654;50.966;6.878;2023-07-09T05:56:26;23.00;99.90
43530;DHT22;55654;50.966;6.878;2023-07-09T05:58:52;23.00;99.90
43530;DHT22;55654;50.966;6.878;2023-07-09T06:01:18;23.10;99.90
43530;DHT22;55654;50.966;6.878;2023-07-09T06:03:45;23.10;99.90
43530;DHT22;55654;50.966;6.878;2023-07-09T06:06:11;23.20;99.90
43530;DHT22;55654;50.966;6.878;2023-07-09T06:08:38;23.20;99.90
43530;DHT22;55654;50.966;6.878;2023-07-09T06:11:03;23.30;99.90
43530;DHT22;55654;50.966;6.878;2023-07-09T06:13:30;23.40;99.90
43530;DHT22;55654;50.966;6.878;2023-07-09T06:15:59;23.40;99.90
43530;DHT22;55654;50.966;6.878;2023-07-09T06:18:28;23.50;99.90
43530;DHT22;55654;50.966;6.878;2023-07-09T06:20:56;23.50;99.90
43530;DHT22;55654;50.966;6.878;2023-07-09T06:23:22;23.60;99.90
43530;DHT22;55654;50.966;6.878;2023-07-09T06:25:48;23.60;99.90
43530;DHT22;55654;50.966;6.878;2023-07-09T06:28:25;23.70;99.90
43530;DHT22;55654;50.966;6.878;2023-07-09T06:30:52;23.80;99.90
43530;DHT22;55654;50.966;6.878;2023-07-09T06:33:20;23.90;99.90
43530;DHT22;55654;50.966;6.878;2023-07-09T06:35:56;24.00;99.90
43530;DHT22;55654;50.966;6.878;2023-07-09T06:38:22;24.10;99.90
43530;DHT22;55654;50.966;6.878;2023-07-09T06:40:48;24.10;99.90
43530;DHT22;55654;50.966;6.878;2023-07-09T06:43:14;24.20;99.90
43530;DHT22;55654;50.966;6.878;2023-07-09T06:45:48;24.20;99.90
43530;DHT22;55654;50.966;6.878;2023-07-09T06:48:14;24.20;99.90
43530;DHT22;55654;50.966;6.878;2023-07-09T06:50:40;24.30;99.90
43530;DHT22;55654;50.966;6.878;2023-07-09T06:53:05;24.30;99.90
43530;DHT22;55654;50.966;6.878;2023-07-09T06:55:31;24.40;99.90
43530;DHT22;55654;50.966;6.878;2023-07-09T06:57:57;24.40;99.90
43530;DHT22;55654;50.966;6.878;2023-07-09T07:00:22;24.50;99.90
43530;DHT22;55654;50.966;6.878;2023-07-09T07:02:51;24.50;99.90
43530;DHT22;55654;50.966;6.878;2023-07-09T07:05:16;24.50;99.90
43530;DHT22;55654;50.966;6.878;2023-07-09T07:07:43;24.60;99.90
43530;DHT22;55654;50.966;6.878;2023-07-09T07:10:10;24.70;99.90
43530;DHT22;55654;50.966;6.878;2023-07-09T07:12:47;24.80;99.90
43530;DHT22;55654;50.966;6.878;2023-07-09T07:15:14;24.80;99.90
43530;DHT22;55654;50.966;6.878;2023-07-09T07:17:41;24.90;99.90
43530;DHT22;55654;50.966;6.878;2023-07-09T07:20:08;24.90;99.90
43530;DHT22;55654;50.966;6.878;2023-07-09T07:22:34;25.00;99.90
43530;DHT22;55654;50.966;6.878;2023-07-09T07:24:59;25.00;99.90
43530;DHT22;55654;50.966;6.878;2023-07-09T07:27:25;25.10;99.90
43530;DHT22;55654;50.966;6.878;2023-07-09T07:29:51;25.20;99.90
43530;DHT22;55654;50.966;6.878;2023-07-09T07:32:16;25.20;99.90
43530;DHT22;55654;50.966;6.878;2023-07-09T07:34:42;25.30;99.90
43530;DHT22;55654;50.966;6.878;2023-07-09T07:37:08;25.40;99.90
43530;DHT22;55654;50.966;6.878;2023-07-09T07:39:33;25.40;99.90
43530;DHT22;55654;50.966;6.878;2023-07-09T07:42:01;25.40;99.90
43530;DHT22;55654;50.966;6.878;2023-07-09T07:44:27;25.40;99.90
43530;DHT22;55654;50.966;6.878;2023-07-09T07:46:52;25.50;99.90
43530;DHT22;55654;50.966;6.878;2023-07-09T07:49:18;25.50;99.90
43530;DHT22;55654;50.966;6.878;2023-07-09T07:51:43;25.60;99.90
43530;DHT22;55654;50.966;6.878;2023-07-09T07:54:09;25.60;99.90
43530;DHT22;55654;50.966;6.878;2023-07-09T07:56:36;25.70;99.90
43530;DHT22;55654;50.966;6.878;2023-07-09T07:59:02;25.80;99.90
43530;DHT22;55654;50.966;6.878;2023-07-09T08:01:28;25.80;99.90
43530;DHT22;55654;50.966;6.878;2023-07-09T08:03:54;25.80;99.90
43530;DHT22;55654;50.966;6.878;2023-07-09T08:06:21;25.80;99.90
43530;DHT22;55654;50.966;6.878;2023-07-09T08:08:48;25.90;99.90
43530;DHT22;55654;50.966;6.878;2023-07-09T08:11:14;25.90;99.90
43530;DHT22;55654;50.966;6.878;2023-07-09T08:13:40;26.00;99.90
43530;DHT22;55654;50.966;6.878;2023-07-09T08:16:09;26.00;99.90
43530;DHT22;55654;50.966;6.878;2023-07-09T08:18:37;26.10;99.90
43530;DHT22;55654;50.966;6.878;2023-07-09T08:21:02;26.20;99.90
43530;DHT22;55654;50.966;6.878;2023-07-09T08:23:28;26.30;99.90
43530;DHT22;55654;50.966;6.878;2023-07-09T08:26:00;26.30;99.90
43530;DHT22;55654;50.966;6.878;2023-07-09T08:28:27;26.40;99.90
43530;DHT22;55654;50.966;6.878;2023-07-09T08:30:53;26.60;99.90
43530;DHT22;55654;50.966;6.878;2023-07-09T08:33:19;26.70;99.90
43530;DHT22;55654;50.966;6.878;2023-07-09T08:35:45;26.70;99.90
43530;DHT22;55654;50.966;6.878;2023-07-09T08:38:13;26.70;99.90
43530;DHT22;55654;50.966;6.878;2023-07-09T08:40:40;26.70;99.90
43530;DHT22;55654;50.966;6.878;2023-07-09T08:43:16;26.70;99.90
43530;DHT22;55654;50.966;6.878;2023-07-09T08:45:50;26.80;99.90
43530;DHT22;55654;50.966;6.878;2023-07-09T08:48:37;26.90;99.90
43530;DHT22;55654;50.966;6.878;2023-07-09T08:51:32;27.00;99.90
43530;DHT22;55654;50.966;6.878;2023-07-09T08:54:00;27.10;99.90
43530;DHT22;55654;50.966;6.878;2023-07-09T08:56:27;27.20;99.90
43530;DHT22;55654;50.966;6.878;2023-07-09T08:58:59;27.40;99.90
43530;DHT22;55654;50.966;6.878;2023-07-09T09:01:32;27.40;99.90
43530;DHT22;55654;50.966;6.878;2023-07-09T09:04:24;27.60;99.90
43530;DHT22;55654;50.966;6.878;2023-07-09T09:09:44;27.70;99.90
43530;DHT22;55654;50.966;6.878;2023-07-09T09:12:17;27.80;99.90
43530;DHT22;55654;50.966;6.878;2023-07-09T09:14:56;27.80;99.90
43530;DHT22;55654;50.966;6.878;2023-07-09T09:17:24;27.80;99.90
43530;DHT22;55654;50.966;6.878;2023-07-09T09:20:17;27.90;99.90
43530;DHT22;55654;50.966;6.878;2023-07-09T09:22:46;27.90;99.90
43530;DHT22;55654;50.966;6.878;2023-07-09T09:25:29;28.00;99.90
43530;DHT22;55654;50.966;6.878;2023-07-09T09:27:55;28.10;99.90
43530;DHT22;55654;50.966;6.878;2023-07-09T09:30:23;28.00;99.90
43530;DHT22;55654;50.966;6.878;2023-07-09T09:32:56;28.10;99.90
43530;DHT22;55654;50.966;6.878;2023-07-09T09:35:31;28.20;99.90
43530;DHT22;55654;50.966;6.878;2023-07-09T09:37:59;28.20;99.90
43530;DHT22;55654;50.966;6.878;2023-07-09T09:40:28;28.30;99.90
43530;DHT22;55654;50.966;6.878;2023-07-09T09:42:56;28.40;99.90
43530;DHT22;55654;50.966;6.878;2023-07-09T09:45:33;28.40;99.90
43530;DHT22;55654;50.966;6.878;2023-07-09T09:48:01;28.40;99.90
43530;DHT22;55654;50.966;6.878;2023-07-09T09:50:31;28.40;99.90
43530;DHT22;55654;50.966;6.878;2023-07-09T09:52:58;28.50;99.90
43530;DHT22;55654;50.966;6.878;2023-07-09T09:55:27;28.60;99.90
43530;DHT22;55654;50.966;6.878;2023-07-09T09:57:54;28.70;99.90
43530;DHT22;55654;50.966;6.878;2023-07-09T10:00:24;28.80;99.90
43530;DHT22;55654;50.966;6.878;2023-07-09T10:02:56;28.80;99.90
43530;DHT22;55654;50.966;6.878;2023-07-09T10:05:35;28.90;99.90
43530;DHT22;55654;50.966;6.878;2023-07-09T10:11:24;28.90;99.90
43530;DHT22;55654;50.966;6.878;2023-07-09T10:13:57;29.00;99.90
43530;DHT22;55654;50.966;6.878;2023-07-09T10:16:54;29.00;99.90
43530;DHT22;55654;50.966;6.878;2023-07-09T10:22:57;29.30;99.90
43530;DHT22;55654;50.966;6.878;2023-07-09T10:31:12;29.60;99.30
43530;DHT22;55654;50.966;6.878;2023-07-09T10:33:51;29.70;99.20
43530;DHT22;55654;50.966;6.878;2023-07-09T10:36:38;29.80;98.60
43530;DHT22;55654;50.966;6.878;2023-07-09T10:39:28;29.80;98.20
43530;DHT22;55654;50.966;6.878;2023-07-09T10:42:30;29.90;97.90
43530;DHT22;55654;50.966;6.878;2023-07-09T10:45:12;30.00;97.80
43530;DHT22;55654;50.966;6.878;2023-07-09T10:47:44;30.10;97.70
43530;DHT22;55654;50.966;6.878;2023-07-09T10:50:38;30.20;97.30
43530;DHT22;55654;50.966;6.878;2023-07-09T10:56:02;30.40;95.80
43530;DHT22;55654;50.966;6.878;2023-07-09T11:01:13;30.70;94.30
43530;DHT22;55654;50.966;6.878;2023-07-09T11:03:44;30.90;94.00
43530;DHT22;55654;50.966;6.878;2023-07-09T11:06:25;31.00;93.70
43530;DHT22;55654;50.966;6.878;2023-07-09T11:12:17;31.00;92.20
43530;DHT22;55654;50.966;6.878;2023-07-09T11:14:51;31.10;91.90
43530;DHT22;55654;50.966;6.878;2023-07-09T11:17:20;31.20;91.50
43530;DHT22;55654;50.966;6.878;2023-07-09T11:19:49;31.40;91.20
43530;DHT22;55654;50.966;6.878;2023-07-09T11:22:37;31.50;91.00
43530;DHT22;55654;50.966;6.878;2023-07-09T11:27:51;31.80;86.80
43530;DHT22;55654;50.966;6.878;2023-07-09T11:30:27;31.90;87.70
43530;DHT22;55654;50.966;6.878;2023-07-09T11:35:28;32.10;86.40
43530;DHT22;55654;50.966;6.878;2023-07-09T11:37:55;32.20;86.80
43530;DHT22;55654;50.966;6.878;2023-07-09T11:40:22;32.30;85.40
43530;DHT22;55654;50.966;6.878;2023-07-09T11:42:56;32.40;84.90
43530;DHT22;55654;50.966;6.878;2023-07-09T11:45:30;32.50;82.60
43530;DHT22;55654;50.966;6.878;2023-07-09T11:50:46;32.80;82.50
43530;DHT22;55654;50.966;6.878;2023-07-09T11:55:44;33.10;80.20
43530;DHT22;55654;50.966;6.878;2023-07-09T11:58:15;33.10;80.00
43530;DHT22;55654;50.966;6.878;2023-07-09T12:00:42;33.10;78.20
43530;DHT22;55654;50.966;6.878;2023-07-09T12:03:15;33.10;75.20
43530;DHT22;55654;50.966;6.878;2023-07-09T12:05:52;33.00;76.00
43530;DHT22;55654;50.966;6.878;2023-07-09T12:08:27;33.40;74.10
43530;DHT22;55654;50.966;6.878;2023-07-09T12:10:53;33.40;72.30
43530;DHT22;55654;50.966;6.878;2023-07-09T12:13:22;33.40;72.00
43530;DHT22;55654;50.966;6.878;2023-07-09T12:15:47;33.40;71.80
43530;DHT22;55654;50.966;6.878;2023-07-09T12:18:14;33.50;71.30
43530;DHT22;55654;50.966;6.878;2023-07-09T12:20:42;33.50;69.60
43530;DHT22;55654;50.966;6.878;2023-07-09T12:23:22;33.60;66.10
43530;DHT22;55654;50.966;6.878;2023-07-09T12:25:50;33.70;67.00
43530;DHT22;55654;50.966;6.878;2023-07-09T12:28:21;33.80;65.00
43530;DHT22;55654;50.966;6.878;2023-07-09T12:30:48;33.90;65.90
43530;DHT22;55654;50.966;6.878;2023-07-09T12:33:18;34.10;64.70
43530;DHT22;55654;50.966;6.878;2023-07-09T12:35:45;34.20;63.90
43530;DHT22;55654;50.966;6.878;2023-07-09T12:38:22;34.30;63.50
43530;DHT22;55654;50.966;6.878;2023-07-09T12:40:50;34.30;63.40
43530;DHT22;55654;50.966;6.878;2023-07-09T12:43:24;34.20;62.40
43530;DHT22;55654;50.966;6.878;2023-07-09T12:45:51;34.10;63.30
43530;DHT22;55654;50.966;6.878;2023-07-09T12:48:17;34.10;63.40
43530;DHT22;55654;50.966;6.878;2023-07-09T12:50:49;34.00;64.00
43530;DHT22;55654;50.966;6.878;2023-07-09T12:53:17;33.90;63.10
43530;DHT22;55654;50.966;6.878;2023-07-09T12:55:45;33.70;63.00
43530;DHT22;55654;50.966;6.878;2023-07-09T12:58:22;33.60;63.40
43530;DHT22;55654;50.966;6.878;2023-07-09T13:00:53;33.60;63.50
43530;DHT22;55654;50.966;6.878;2023-07-09T13:03:24;33.50;63.60
43530;DHT22;55654;50.966;6.878;2023-07-09T13:06:02;33.40;63.70
43530;DHT22;55654;50.966;6.878;2023-07-09T13:08:33;33.30;64.00
43530;DHT22;55654;50.966;6.878;2023-07-09T13:11:14;33.20;64.40
43530;DHT22;55654;50.966;6.878;2023-07-09T13:13:57;33.10;63.40
43530;DHT22;55654;50.966;6.878;2023-07-09T13:16:23;33.00;65.30
43530;DHT22;55654;50.966;6.878;2023-07-09T13:18:51;32.90;63.60
43530;DHT22;55654;50.966;6.878;2023-07-09T13:21:18;32.80;64.50
43530;DHT22;55654;50.966;6.878;2023-07-09T13:23:44;32.80;65.10
43530;DHT22;55654;50.966;6.878;2023-07-09T13:26:14;32.70;65.10
43530;DHT22;55654;50.966;6.878;2023-07-09T13:28:42;32.60;64.80
43530;DHT22;55654;50.966;6.878;2023-07-09T13:31:16;32.60;65.60
43530;DHT22;55654;50.966;6.878;2023-07-09T13:33:43;32.60;65.70
43530;DHT22;55654;50.966;6.878;2023-07-09T13:36:10;32.50;66.40
43530;DHT22;55654;50.966;6.878;2023-07-09T13:38:36;32.40;65.60
43530;DHT22;55654;50.966;6.878;2023-07-09T13:41:12;32.30;65.10
43530;DHT22;55654;50.966;6.878;2023-07-09T13:43:39;32.20;65.40
43530;DHT22;55654;50.966;6.878;2023-07-09T13:46:09;32.20;65.50
43530;DHT22;55654;50.966;6.878;2023-07-09T13:48:36;32.10;65.20
43530;DHT22;55654;50.966;6.878;2023-07-09T13:51:20;32.10;65.00
43530;DHT22;55654;50.966;6.878;2023-07-09T13:53:49;32.10;64.30
43530;DHT22;55654;50.966;6.878;2023-07-09T13:56:15;32.20;66.60
43530;DHT22;55654;50.966;6.878;2023-07-09T13:58:41;31.90;68.50
43530;DHT22;55654;50.966;6.878;2023-07-09T14:01:16;31.60;70.00
43530;DHT22;55654;50.966;6.878;2023-07-09T14:03:44;31.20;71.80
43530;DHT22;55654;50.966;6.878;2023-07-09T14:06:12;30.90;73.20
43530;DHT22;55654;50.966;6.878;2023-07-09T14:08:40;30.70;74.20
43530;DHT22;55654;50.966;6.878;2023-07-09T14:11:11;30.70;75.30
43530;DHT22;55654;50.966;6.878;2023-07-09T14:13:36;30.50;76.20
43530;DHT22;55654;50.966;6.878;2023-07-09T14:16:02;30.30;76.90
43530;DHT22;55654;50.966;6.878;2023-07-09T14:18:28;30.10;77.60
43530;DHT22;55654;50.966;6.878;2023-07-09T14:20:57;29.90;78.70
43530;DHT22;55654;50.966;6.878;2023-07-09T14:23:22;29.60;80.20
43530;DHT22;55654;50.966;6.878;2023-07-09T14:25:50;29.40;81.00
43530;DHT22;55654;50.966;6.878;2023-07-09T14:28:19;29.20;82.30
43530;DHT22;55654;50.966;6.878;2023-07-09T14:30:46;28.90;82.60
43530;DHT22;55654;50.966;6.878;2023-07-09T14:33:16;28.80;82.50
43530;DHT22;55654;50.966;6.878;2023-07-09T14:35:43;28.60;82.50
43530;DHT22;55654;50.966;6.878;2023-07-09T14:38:22;28.40;83.20
43530;DHT22;55654;50.966;6.878;2023-07-09T14:40:54;28.20;85.50
43530;DHT22;55654;50.966;6.878;2023-07-09T14:43:20;27.90;88.90
43530;DHT22;55654;50.966;6.878;2023-07-09T14:45:49;27.60;92.50
43530;DHT22;55654;50.966;6.878;2023-07-09T14:51:15;26.60;99.90
43530;DHT22;55654;50.966;6.878;2023-07-09T14:53:43;25.70;99.90
43530;DHT22;55654;50.966;6.878;2023-07-09T14:56:42;25.20;99.90
43530;DHT22;55654;50.966;6.878;2023-07-09T14:59:11;25.10;99.90
43530;DHT22;55654;50.966;6.878;2023-07-09T15:01:36;24.80;99.90
43530;DHT22;55654;50.966;6.878;2023-07-09T15:04:29;24.50;99.90
43530;DHT22;55654;50.966;6.878;2023-07-09T15:06:59;24.10;99.90
43530;DHT22;55654;50.966;6.878;2023-07-09T15:09:27;23.70;99.90
43530;DHT22;55654;50.966;6.878;2023-07-09T15:11:55;23.40;99.90
43530;DHT22;55654;50.966;6.878;2023-07-09T15:14:22;23.20;99.90
43530;DHT22;55654;50.966;6.878;2023-07-09T15:16:48;23.20;99.90
43530;DHT22;55654;50.966;6.878;2023-07-09T15:19:17;23.10;99.90
43530;DHT22;55654;50.966;6.878;2023-07-09T15:21:44;23.10;99.90
43530;DHT22;55654;50.966;6.878;2023-07-09T15:24:32;23.30;99.90
43530;DHT22;55654;50.966;6.878;2023-07-09T15:26:59;23.40;99.90
43530;DHT22;55654;50.966;6.878;2023-07-09T15:29:26;23.60;99.90
43530;DHT22;55654;50.966;6.878;2023-07-09T15:31:52;23.80;99.90
43530;DHT22;55654;50.966;6.878;2023-07-09T15:34:23;23.90;99.90
43530;DHT22;55654;50.966;6.878;2023-07-09T15:36:51;24.10;99.90
43530;DHT22;55654;50.966;6.878;2023-07-09T15:39:20;24.30;99.90
43530;DHT22;55654;50.966;6.878;2023-07-09T15:41:47;24.40;99.90
43530;DHT22;55654;50.966;6.878;2023-07-09T15:44:15;24.50;99.90
43530;DHT22;55654;50.966;6.878;2023-07-09T15:46:45;24.70;99.90
43530;DHT22;55654;50.966;6.878;2023-07-09T15:49:12;24.80;99.90
43530;DHT22;55654;50.966;6.878;2023-07-09T15:51:38;25.00;99.90
43530;DHT22;55654;50.966;6.878;2023-07-09T15:54:20;25.10;99.90
43530;DHT22;55654;50.966;6.878;2023-07-09T15:56:51;25.10;99.90
43530;DHT22;55654;50.966;6.878;2023-07-09T16:01:54;25.20;99.90
43530;DHT22;55654;50.966;6.878;2023-07-09T16:04:20;25.30;99.90
43530;DHT22;55654;50.966;6.878;2023-07-09T16:06:46;25.40;99.90
43530;DHT22;55654;50.966;6.878;2023-07-09T16:09:32;25.50;99.90
43530;DHT22;55654;50.966;6.878;2023-07-09T16:12:11;25.50;99.90
43530;DHT22;55654;50.966;6.878;2023-07-09T16:14:38;25.50;99.90
43530;DHT22;55654;50.966;6.878;2023-07-09T16:17:10;25.50;99.90
43530;DHT22;55654;50.966;6.878;2023-07-09T16:19:47;25.40;99.90
43530;DHT22;55654;50.966;6.878;2023-07-09T16:22:14;25.50;99.90
43530;DHT22;55654;50.966;6.878;2023-07-09T16:24:49;25.50;99.90
43530;DHT22;55654;50.966;6.878;2023-07-09T16:27:15;25.50;99.90
43530;DHT22;55654;50.966;6.878;2023-07-09T16:29:41;25.60;99.90